createdAt,value
2023-05-05T00:01:09.274Z,8.66
2023-05-05T00:03:36.296Z,8.60
2023-05-05T00:06:04.322Z,8.59
2023-05-05T00:08:31.110Z,8.48
2023-05-05T00:10:57.783Z,8.52
2023-05-05T00:13:24.760Z,8.47
2023-05-05T00:15:52.584Z,8.44
2023-05-05T00:18:19.672Z,8.34
2023-05-05T00:20:47.568Z,8.35
2023-05-05T00:23:17.885Z,8.25
2023-05-05T00:25:44.599Z,8.18
2023-05-05T00:28:11.543Z,8.08
2023-05-05T00:30:39.905Z,8.09
2023-05-05T00:33:06.726Z,8.05
2023-05-05T00:35:33.751Z,8.02
2023-05-05T00:38:00.484Z,8.05
2023-05-05T00:40:28.320Z,7.99
2023-05-05T00:42:54.956Z,8.01
2023-05-05T00:45:21.629Z,7.97
2023-05-05T00:47:51.540Z,7.95
2023-05-05T00:50:23.749Z,7.89
2023-05-05T00:52:51.810Z,7.79
2023-05-05T00:55:19.084Z,7.81
2023-05-05T00:57:45.978Z,7.77
2023-05-05T01:00:13.105Z,7.74
2023-05-05T01:02:40.183Z,7.71
2023-05-05T01:05:10.954Z,7.65
2023-05-05T01:07:43.570Z,7.64
2023-05-05T01:10:36.936Z,7.65
2023-05-05T01:13:15.646Z,7.63
2023-05-05T01:15:50.058Z,7.58
2023-05-05T01:18:38.166Z,7.58
2023-05-05T01:21:16.294Z,7.58
2023-05-05T01:24:00.938Z,7.53
2023-05-05T01:27:03.058Z,7.50
2023-05-05T01:29:51.409Z,7.48
2023-05-05T01:32:25.573Z,7.52
2023-05-05T01:35:05.410Z,7.50
2023-05-05T01:37:55.636Z,7.51
2023-05-05T01:40:26.813Z,7.47
2023-05-05T01:42:55.489Z,7.47
2023-05-05T01:45:28.076Z,7.49
2023-05-05T01:47:56.401Z,7.47
2023-05-05T01:50:24.522Z,7.47
2023-05-05T01:52:52.706Z,7.48
2023-05-05T01:55:20.744Z,7.42
2023-05-05T01:57:49.045Z,7.42
2023-05-05T02:00:18.001Z,7.45
2023-05-05T02:02:49.728Z,7.48
2023-05-05T02:05:19.509Z,7.34
2023-05-05T02:07:46.885Z,7.32
2023-05-05T02:10:14.449Z,7.26
2023-05-05T02:12:44.256Z,7.28
2023-05-05T02:15:12.652Z,7.33
2023-05-05T02:17:42.277Z,7.32
2023-05-05T02:20:11.840Z,7.35
2023-05-05T02:22:38.660Z,7.31
2023-05-05T02:25:06.165Z,7.30
2023-05-05T02:27:35.984Z,7.25
2023-05-05T02:30:08.604Z,7.22
2023-05-05T02:32:50.474Z,7.17
2023-05-05T02:35:22.489Z,7.19
2023-05-05T02:38:01.826Z,7.19
2023-05-05T02:40:35.253Z,7.17
2023-05-05T02:43:06.855Z,7.15
2023-05-05T02:45:33.844Z,7.18
2023-05-05T02:48:04.216Z,7.25
2023-05-05T02:50:34.240Z,7.25
2023-05-05T02:53:12.024Z,7.27
2023-05-05T02:55:50.612Z,7.28
2023-05-05T02:58:29.095Z,7.31
2023-05-05T03:01:16.050Z,7.29
2023-05-05T03:03:59.119Z,7.32
2023-05-05T03:06:28.545Z,7.36
2023-05-05T03:09:25.218Z,7.35
2023-05-05T03:12:03.918Z,7.33
2023-05-05T03:14:41.901Z,7.29
2023-05-05T03:17:12.567Z,7.23
2023-05-05T03:19:44.596Z,7.28
2023-05-05T03:22:11.603Z,7.38
2023-05-05T03:24:41.792Z,7.36
2023-05-05T03:27:10.278Z,7.42
2023-05-05T03:29:39.233Z,7.42
2023-05-05T03:32:10.440Z,7.39
2023-05-05T03:34:37.866Z,7.40
2023-05-05T03:37:05.736Z,7.40
2023-05-05T03:39:32.552Z,7.42
2023-05-05T03:41:59.792Z,7.46
2023-05-05T03:44:30.550Z,7.47
2023-05-05T03:46:57.200Z,7.46
2023-05-05T03:49:24.261Z,7.40
2023-05-05T03:51:51.784Z,7.26
2023-05-05T03:54:18.385Z,7.23
2023-05-05T03:56:45.059Z,7.21
2023-05-05T03:59:11.731Z,7.22
2023-05-05T04:01:38.694Z,7.28
2023-05-05T04:04:05.664Z,7.33
2023-05-05T04:06:32.736Z,7.34
2023-05-05T04:08:59.277Z,7.34
2023-05-05T04:11:26.260Z,7.32
2023-05-05T04:13:54.681Z,7.30
2023-05-05T04:16:21.986Z,7.27
2023-05-05T04:18:49.342Z,7.22
2023-05-05T04:21:17.423Z,7.27
2023-05-05T04:23:44.544Z,7.34
2023-05-05T04:26:11.373Z,7.40
2023-05-05T04:28:38.078Z,7.44
2023-05-05T04:31:05.229Z,7.49
2023-05-05T04:33:35.736Z,7.50
2023-05-05T04:36:02.770Z,7.53
2023-05-05T04:38:29.578Z,7.60
2023-05-05T04:40:56.499Z,7.63
2023-05-05T04:43:23.181Z,7.60
2023-05-05T04:45:56.315Z,7.58
2023-05-05T04:48:27.275Z,7.60
2023-05-05T04:50:53.955Z,7.59
2023-05-05T04:53:20.519Z,7.59
2023-05-05T04:55:47.215Z,7.64
2023-05-05T04:58:13.797Z,7.71
2023-05-05T05:00:40.725Z,7.76
2023-05-05T05:03:08.255Z,7.81
2023-05-05T05:05:34.861Z,7.89
2023-05-05T05:08:01.737Z,7.94
2023-05-05T05:10:28.692Z,8.04
2023-05-05T05:12:55.376Z,8.07
2023-05-05T05:15:22.063Z,8.12
2023-05-05T05:17:48.797Z,8.15
2023-05-05T05:20:15.548Z,8.20
2023-05-05T05:22:42.261Z,8.25
2023-05-05T05:25:13.515Z,8.23
2023-05-05T05:27:41.656Z,8.24
2023-05-05T05:30:09.812Z,8.25
2023-05-05T05:32:36.832Z,8.30
2023-05-05T05:35:03.966Z,8.36
2023-05-05T05:37:31.474Z,8.47
2023-05-05T05:39:59.093Z,8.61
2023-05-05T05:42:27.049Z,8.75
2023-05-05T05:44:53.779Z,8.92
2023-05-05T05:47:20.437Z,9.09
2023-05-05T05:49:47.122Z,9.27
2023-05-05T05:52:13.868Z,9.45
2023-05-05T05:54:40.960Z,9.63
2023-05-05T05:57:08.643Z,9.76
2023-05-05T05:59:35.360Z,9.87
2023-05-05T06:02:02.334Z,9.98
2023-05-05T06:04:30.885Z,10.14
2023-05-05T06:06:57.601Z,10.30
2023-05-05T06:09:25.249Z,10.52
2023-05-05T06:11:53.381Z,10.72
2023-05-05T06:14:20.706Z,10.94
2023-05-05T06:16:47.664Z,11.16
2023-05-05T06:19:18.778Z,11.31
2023-05-05T06:21:45.429Z,11.45
2023-05-05T06:24:12.082Z,11.65
2023-05-05T06:26:38.825Z,11.81
2023-05-05T06:29:05.469Z,11.94
2023-05-05T06:31:32.180Z,11.98
2023-05-05T06:33:58.817Z,12.02
2023-05-05T06:36:25.509Z,11.97
2023-05-05T06:38:52.228Z,11.88
2023-05-05T06:41:18.858Z,11.84
2023-05-05T06:43:45.945Z,11.86
2023-05-05T06:46:13.863Z,11.97
2023-05-05T06:48:40.593Z,12.09
2023-05-05T06:51:07.290Z,12.22
2023-05-05T06:53:33.923Z,12.34
2023-05-05T06:56:00.461Z,12.45
2023-05-05T06:58:27.131Z,12.58
2023-05-05T07:00:54.160Z,12.77
2023-05-05T07:03:20.920Z,12.98
2023-05-05T07:05:47.607Z,13.20
2023-05-05T07:08:14.795Z,13.34
2023-05-05T07:10:41.853Z,13.53
2023-05-05T07:13:08.556Z,13.62
2023-05-05T07:15:35.542Z,13.72
2023-05-05T07:18:02.343Z,13.87
2023-05-05T07:20:29.000Z,14.01
2023-05-05T07:22:55.926Z,14.11
2023-05-05T07:25:22.567Z,14.28
2023-05-05T07:27:49.233Z,14.63
2023-05-05T07:30:18.468Z,14.82
2023-05-05T07:32:46.109Z,14.94
2023-05-05T07:35:12.913Z,15.13
2023-05-05T07:37:39.570Z,15.19
2023-05-05T07:40:07.161Z,15.32
2023-05-05T07:42:33.880Z,15.46
2023-05-05T07:45:00.702Z,15.61
2023-05-05T07:47:27.327Z,15.74
2023-05-05T07:49:54.421Z,15.85
2023-05-05T07:52:30.002Z,15.90
2023-05-05T07:55:01.035Z,16.10
2023-05-05T07:57:28.414Z,16.16
2023-05-05T07:59:55.128Z,16.26
2023-05-05T08:02:21.952Z,16.40
2023-05-05T08:04:50.073Z,16.58
2023-05-05T08:07:16.756Z,16.83
2023-05-05T08:09:44.045Z,17.00
2023-05-05T08:12:12.262Z,17.21
2023-05-05T08:14:40.464Z,17.40
2023-05-05T08:17:07.452Z,17.75
2023-05-05T08:19:34.202Z,17.98
2023-05-05T08:22:01.591Z,18.11
2023-05-05T08:24:28.567Z,18.07
2023-05-05T08:26:56.152Z,17.90
2023-05-05T08:29:23.223Z,17.91
2023-05-05T08:31:49.866Z,17.96
2023-05-05T08:34:16.508Z,18.13
2023-05-05T08:36:44.062Z,18.29
2023-05-05T08:39:10.753Z,18.43
2023-05-05T08:41:37.424Z,18.57
2023-05-05T08:44:04.115Z,18.80
2023-05-05T08:46:31.153Z,19.13
2023-05-05T08:48:58.792Z,19.30
2023-05-05T08:51:31.377Z,19.81
2023-05-05T08:54:02.614Z,20.24
2023-05-05T08:56:36.197Z,20.27
2023-05-05T08:59:03.248Z,20.20
2023-05-05T09:01:32.234Z,20.12
2023-05-05T09:03:59.220Z,20.16
2023-05-05T09:06:27.357Z,20.22
2023-05-05T09:08:54.534Z,20.25
2023-05-05T09:11:22.590Z,20.27
2023-05-05T09:13:49.830Z,20.62
2023-05-05T09:16:16.507Z,20.98
2023-05-05T09:18:43.322Z,21.44
2023-05-05T09:21:24.610Z,21.86
2023-05-05T09:24:08.602Z,22.42
2023-05-05T09:26:43.488Z,23.11
2023-05-05T09:29:17.115Z,23.37
2023-05-05T09:31:43.917Z,22.79
2023-05-05T09:34:15.853Z,22.15
2023-05-05T09:36:44.744Z,23.46
2023-05-05T09:39:11.584Z,24.77
2023-05-05T09:41:43.578Z,26.15
2023-05-05T09:44:11.537Z,27.55
2023-05-05T09:46:49.042Z,28.21
2023-05-05T09:49:20.025Z,28.76
2023-05-05T09:51:47.616Z,28.78
2023-05-05T09:54:24.060Z,28.25
2023-05-05T09:56:52.528Z,29.03
2023-05-05T09:59:19.896Z,29.30
2023-05-05T10:01:47.431Z,29.79
2023-05-05T10:04:28.512Z,30.44
2023-05-05T10:06:58.885Z,30.27
2023-05-05T10:09:26.158Z,29.47
2023-05-05T10:11:53.840Z,29.38
2023-05-05T10:14:20.786Z,29.34
2023-05-05T10:16:50.651Z,29.86
2023-05-05T10:19:21.329Z,30.33
2023-05-05T10:21:51.169Z,30.57
2023-05-05T10:24:40.541Z,30.40
2023-05-05T10:27:20.042Z,30.61
2023-05-05T10:30:01.297Z,30.65
2023-05-05T10:32:56.066Z,30.63
2023-05-05T10:35:28.570Z,29.91
2023-05-05T10:37:55.964Z,30.12
2023-05-05T10:40:22.680Z,30.83
2023-05-05T10:42:50.860Z,29.49
2023-05-05T10:45:17.688Z,29.38
2023-05-05T10:47:44.581Z,29.74
2023-05-05T10:50:21.750Z,29.92
2023-05-05T10:53:24.083Z,29.37
2023-05-05T10:56:10.747Z,29.63
2023-05-05T10:58:51.649Z,29.34
2023-05-05T11:01:33.427Z,30.07
2023-05-05T11:04:35.873Z,30.14
2023-05-05T11:07:27.394Z,30.28
2023-05-05T11:09:55.999Z,29.97
2023-05-05T11:12:22.643Z,29.97
2023-05-05T11:15:27.611Z,30.08
2023-05-05T11:17:55.652Z,30.33
2023-05-05T11:20:40.542Z,30.05
2023-05-05T11:23:07.325Z,29.97
2023-05-05T11:25:37.555Z,30.01
2023-05-05T11:28:17.935Z,29.31
2023-05-05T11:30:57.180Z,28.62
2023-05-05T11:33:38.833Z,28.02
2023-05-05T11:36:07.155Z,28.35
2023-05-05T11:38:53.070Z,28.82
2023-05-05T11:41:32.026Z,29.29
2023-05-05T11:44:16.612Z,28.82
2023-05-05T11:46:52.390Z,28.55
2023-05-05T11:49:32.090Z,28.84
2023-05-05T11:52:02.597Z,29.57
2023-05-05T11:54:30.243Z,30.27
2023-05-05T11:57:08.395Z,30.91
2023-05-05T11:59:40.252Z,31.41
2023-05-05T12:02:06.965Z,31.51
2023-05-05T12:04:33.658Z,31.11
2023-05-05T12:07:00.605Z,30.79
2023-05-05T12:09:27.552Z,31.40
2023-05-05T12:11:58.386Z,31.70
2023-05-05T12:14:25.909Z,31.62
2023-05-05T12:17:07.101Z,32.21
2023-05-05T12:19:33.758Z,31.60
2023-05-05T12:22:04.704Z,31.89
2023-05-05T12:24:31.544Z,30.75
2023-05-05T12:27:08.792Z,29.83
2023-05-05T12:29:35.457Z,29.93
2023-05-05T12:32:02.164Z,30.09
2023-05-05T12:34:29.068Z,30.15
2023-05-05T12:36:55.954Z,29.13
2023-05-05T12:39:22.544Z,28.58
2023-05-05T12:41:49.691Z,27.99
2023-05-05T12:44:16.578Z,26.67
2023-05-05T12:46:47.455Z,25.97
2023-05-05T12:49:14.796Z,25.63
2023-05-05T12:51:56.956Z,26.02
2023-05-05T12:54:24.972Z,27.09
2023-05-05T12:56:51.643Z,27.63
2023-05-05T12:59:21.085Z,28.07
2023-05-05T13:01:58.418Z,27.76
2023-05-05T13:04:27.345Z,27.74
2023-05-05T13:07:11.088Z,27.51
2023-05-05T13:09:38.290Z,27.77
2023-05-05T13:12:05.164Z,27.34
2023-05-05T13:14:32.395Z,27.13
2023-05-05T13:16:59.069Z,27.70
2023-05-05T13:19:25.785Z,28.19
2023-05-05T13:21:53.133Z,28.25
2023-05-05T13:24:28.745Z,28.45
2023-05-05T13:27:02.923Z,28.38
2023-05-05T13:29:31.633Z,28.76
2023-05-05T13:31:58.830Z,28.38
2023-05-05T13:34:25.977Z,27.08
2023-05-05T13:36:52.705Z,26.85
2023-05-05T13:39:19.366Z,26.62
2023-05-05T13:41:46.055Z,26.01
2023-05-05T13:44:14.915Z,25.57
2023-05-05T13:46:42.710Z,24.92
2023-05-05T13:49:09.547Z,24.47
2023-05-05T13:51:36.970Z,24.30
2023-05-05T13:54:03.915Z,24.11
2023-05-05T13:56:30.681Z,24.06
2023-05-05T13:58:57.317Z,24.10
2023-05-05T14:01:24.063Z,24.05
2023-05-05T14:03:50.932Z,23.92
2023-05-05T14:06:17.649Z,23.96
2023-05-05T14:08:44.406Z,24.70
2023-05-05T14:11:11.110Z,25.33
2023-05-05T14:13:38.052Z,26.00
2023-05-05T14:16:05.760Z,26.03
2023-05-05T14:18:32.583Z,25.50
2023-05-05T14:20:59.186Z,25.57
2023-05-05T14:23:25.858Z,25.57
2023-05-05T14:25:52.515Z,25.31
2023-05-05T14:28:19.221Z,24.90
2023-05-05T14:30:46.653Z,24.81
2023-05-05T14:33:13.236Z,24.47
2023-05-05T14:35:39.981Z,24.31
2023-05-05T14:38:06.578Z,24.34
2023-05-05T14:40:33.233Z,24.20
2023-05-05T14:43:00.168Z,24.11
2023-05-05T14:45:29.436Z,23.72
2023-05-05T14:47:56.117Z,23.55
2023-05-05T14:50:22.715Z,23.57
2023-05-05T14:52:49.342Z,23.78
2023-05-05T14:55:15.958Z,24.03
2023-05-05T14:57:42.585Z,24.01
2023-05-05T15:00:11.262Z,23.78
2023-05-05T15:02:38.039Z,23.55
2023-05-05T15:05:05.109Z,23.29
2023-05-05T15:07:31.794Z,23.17
2023-05-05T15:09:58.452Z,22.96
2023-05-05T15:12:27.621Z,23.04
2023-05-05T15:14:55.414Z,23.03
2023-05-05T15:17:22.304Z,23.11
2023-05-05T15:19:49.019Z,23.10
2023-05-05T15:22:15.709Z,23.01
2023-05-05T15:24:42.366Z,22.90
2023-05-05T15:27:09.244Z,22.87
2023-05-05T15:29:35.885Z,22.79
2023-05-05T15:32:02.533Z,22.71
2023-05-05T15:34:29.162Z,22.59
2023-05-05T15:36:56.074Z,22.63
2023-05-05T15:39:22.762Z,22.62
2023-05-05T15:41:49.395Z,22.56
2023-05-05T15:44:16.048Z,22.37
2023-05-05T15:46:42.719Z,22.26
2023-05-05T15:49:09.414Z,22.10
2023-05-05T15:51:36.202Z,22.09
2023-05-05T15:54:02.888Z,21.99
2023-05-05T15:56:29.711Z,21.97
2023-05-05T15:58:56.891Z,22.01
2023-05-05T16:01:23.503Z,21.94
2023-05-05T16:03:50.359Z,22.01
2023-05-05T16:06:16.933Z,22.01
2023-05-05T16:08:43.620Z,22.07
2023-05-05T16:11:10.635Z,22.09
2023-05-05T16:13:39.091Z,21.86
2023-05-05T16:16:06.835Z,21.81
2023-05-05T16:18:33.690Z,21.74
2023-05-05T16:21:00.331Z,21.64
2023-05-05T16:23:26.926Z,21.54
2023-05-05T16:25:53.494Z,21.43
2023-05-05T16:28:20.108Z,21.39
2023-05-05T16:30:46.880Z,21.32
2023-05-05T16:33:13.669Z,21.20
2023-05-05T16:35:40.416Z,21.08
2023-05-05T16:38:07.024Z,21.02
2023-05-05T16:40:37.101Z,21.02
2023-05-05T16:43:04.473Z,20.94
2023-05-05T16:45:31.352Z,20.84
2023-05-05T16:47:57.961Z,20.78
2023-05-05T16:50:24.606Z,20.76
2023-05-05T16:52:51.425Z,20.70
2023-05-05T16:55:18.256Z,20.59
2023-05-05T16:57:44.854Z,20.49
2023-05-05T17:00:12.186Z,20.46
2023-05-05T17:02:38.824Z,20.35
2023-05-05T17:05:06.236Z,20.27
2023-05-05T17:07:33.105Z,20.22
2023-05-05T17:09:59.748Z,20.11
2023-05-05T17:12:26.409Z,20.06
2023-05-05T17:14:53.029Z,20.08
2023-05-05T17:17:19.709Z,20.03
2023-05-05T17:19:46.292Z,19.96
2023-05-05T17:22:12.968Z,19.91
2023-05-05T17:24:39.617Z,19.82
2023-05-05T17:27:06.446Z,19.77
2023-05-05T17:29:36.732Z,19.75
2023-05-05T17:32:03.684Z,19.69
2023-05-05T17:34:30.439Z,19.64
2023-05-05T17:36:57.018Z,19.60
2023-05-05T17:39:23.745Z,19.59
2023-05-05T17:41:51.514Z,19.54
2023-05-05T17:44:18.105Z,19.51
2023-05-05T17:46:44.666Z,19.38
2023-05-05T17:49:11.237Z,19.31
2023-05-05T17:51:38.505Z,19.24
2023-05-05T17:54:05.369Z,19.25
2023-05-05T17:56:31.925Z,19.16
2023-05-05T17:58:58.527Z,19.12
2023-05-05T18:01:26.569Z,18.99
2023-05-05T18:03:53.359Z,18.88
2023-05-05T18:06:20.126Z,18.85
2023-05-05T18:08:46.770Z,18.81
2023-05-05T18:11:13.435Z,18.83
2023-05-05T18:13:40.140Z,18.73
2023-05-05T18:16:07.138Z,18.63
2023-05-05T18:18:35.323Z,18.55
2023-05-05T18:21:01.974Z,18.45
2023-05-05T18:23:28.698Z,18.34
2023-05-05T18:25:55.384Z,18.22
2023-05-05T18:28:21.956Z,18.13
2023-05-05T18:30:48.729Z,18.10
2023-05-05T18:33:15.951Z,18.08
2023-05-05T18:35:42.521Z,18.04
2023-05-05T18:38:09.135Z,17.98
2023-05-05T18:40:35.774Z,17.98
2023-05-05T18:43:02.367Z,17.88
2023-05-05T18:45:29.047Z,17.76
2023-05-05T18:47:56.369Z,17.72
2023-05-05T18:50:23.139Z,17.73
2023-05-05T18:52:49.733Z,17.65
2023-05-05T18:55:16.325Z,17.61
2023-05-05T18:57:42.915Z,17.57
2023-05-05T19:00:10.295Z,17.52
2023-05-05T19:02:37.710Z,17.50
2023-05-05T19:05:04.895Z,17.51
2023-05-05T19:07:34.898Z,17.46
2023-05-05T19:10:04.298Z,17.44
2023-05-05T19:12:30.966Z,17.42
2023-05-05T19:14:57.833Z,17.37
2023-05-05T19:17:24.393Z,17.33
2023-05-05T19:19:51.664Z,17.29
2023-05-05T19:22:18.326Z,17.26
2023-05-05T19:24:44.925Z,17.26
2023-05-05T19:27:15.472Z,17.23
2023-05-05T19:29:43.213Z,17.21
2023-05-05T19:32:09.869Z,17.19
2023-05-05T19:34:36.729Z,17.12
2023-05-05T19:37:03.360Z,17.11
2023-05-05T19:39:30.046Z,17.03
2023-05-05T19:41:56.598Z,16.97
2023-05-05T19:44:23.784Z,16.95
2023-05-05T19:46:52.658Z,16.99
2023-05-05T19:49:19.428Z,16.93
2023-05-05T19:51:47.600Z,16.91
2023-05-05T19:54:14.329Z,16.97
2023-05-05T19:56:41.001Z,16.94
2023-05-05T19:59:07.654Z,16.88
2023-05-05T20:01:35.216Z,16.82
2023-05-05T20:04:03.243Z,16.78
2023-05-05T20:06:29.853Z,16.75
2023-05-05T20:08:56.472Z,16.69
2023-05-05T20:11:25.772Z,16.64
2023-05-05T20:13:53.025Z,16.68
2023-05-05T20:16:20.043Z,16.61
2023-05-05T20:18:47.004Z,16.50
2023-05-05T20:21:14.758Z,16.50
2023-05-05T20:23:42.798Z,16.46
2023-05-05T20:26:09.639Z,16.42
2023-05-05T20:28:36.868Z,16.35
2023-05-05T20:31:03.592Z,16.30
2023-05-05T20:33:30.364Z,16.33
2023-05-05T20:35:57.148Z,16.25
2023-05-05T20:38:23.946Z,16.17
2023-05-05T20:40:52.043Z,16.20
2023-05-05T20:43:19.648Z,16.18
2023-05-05T20:45:46.544Z,16.03
2023-05-05T20:48:13.147Z,15.94
2023-05-05T20:50:42.851Z,15.83
2023-05-05T20:53:13.932Z,15.84
2023-05-05T20:55:41.032Z,15.79
2023-05-05T20:58:07.637Z,15.81
2023-05-05T21:00:34.416Z,15.79
2023-05-05T21:03:02.601Z,15.81
2023-05-05T21:05:29.508Z,15.81
2023-05-05T21:07:57.269Z,15.77
2023-05-05T21:10:25.050Z,15.65
2023-05-05T21:12:51.766Z,15.52
2023-05-05T21:15:18.419Z,15.50
2023-05-05T21:17:45.141Z,15.51
2023-05-05T21:20:12.495Z,15.50
2023-05-05T21:22:39.383Z,15.48
2023-05-05T21:25:16.760Z,15.46
2023-05-05T21:27:43.854Z,15.46
2023-05-05T21:30:11.773Z,15.42
2023-05-05T21:32:39.740Z,15.40
2023-05-05T21:35:07.905Z,15.39
2023-05-05T21:37:34.924Z,15.29
2023-05-05T21:40:01.693Z,15.33
2023-05-05T21:42:31.685Z,15.37
2023-05-05T21:44:58.291Z,15.29
2023-05-05T21:47:24.977Z,15.23
2023-05-05T21:49:51.571Z,15.24
2023-05-05T21:52:18.222Z,15.25
2023-05-05T21:54:44.990Z,15.29
2023-05-05T21:57:11.659Z,15.29
2023-05-05T21:59:38.317Z,15.26
2023-05-05T22:02:04.983Z,15.23
2023-05-05T22:04:31.583Z,15.20
2023-05-05T22:06:58.258Z,15.12
2023-05-05T22:09:24.844Z,15.11
2023-05-05T22:11:51.514Z,15.04
2023-05-05T22:14:18.158Z,15.00
2023-05-05T22:16:44.867Z,15.00
2023-05-05T22:19:11.570Z,14.98
2023-05-05T22:21:38.178Z,14.96
2023-05-05T22:24:05.302Z,14.99
2023-05-05T22:26:31.871Z,15.01
2023-05-05T22:28:58.476Z,15.08
2023-05-05T22:31:25.094Z,14.98
2023-05-05T22:33:51.634Z,14.91
2023-05-05T22:36:18.303Z,14.83
2023-05-05T22:38:44.933Z,14.79
2023-05-05T22:41:11.558Z,14.75
2023-05-05T22:43:38.897Z,14.68
2023-05-05T22:46:05.809Z,14.62
2023-05-05T22:48:32.416Z,14.59
2023-05-05T22:50:59.829Z,14.59
2023-05-05T22:53:26.549Z,14.58
2023-05-05T22:55:53.173Z,14.61
2023-05-05T22:58:20.905Z,14.61
2023-05-05T23:00:47.523Z,14.55
2023-05-05T23:03:14.439Z,14.51
2023-05-05T23:05:41.123Z,14.39
2023-05-05T23:08:07.716Z,14.27
2023-05-05T23:10:34.344Z,14.12
2023-05-05T23:13:01.033Z,13.98
2023-05-05T23:15:28.630Z,13.87
2023-05-05T23:17:55.428Z,13.84
2023-05-05T23:20:22.201Z,13.87
2023-05-05T23:22:48.899Z,13.75
2023-05-05T23:25:15.631Z,13.55
2023-05-05T23:27:42.234Z,13.52
2023-05-05T23:30:09.584Z,13.51
2023-05-05T23:32:36.392Z,13.51
2023-05-05T23:35:03.137Z,13.51
2023-05-05T23:37:29.766Z,13.42
2023-05-05T23:39:56.787Z,13.36
2023-05-05T23:42:24.444Z,13.33
2023-05-05T23:44:51.084Z,13.28
2023-05-05T23:47:17.798Z,13.21
2023-05-05T23:49:44.436Z,13.13
2023-05-05T23:52:11.278Z,13.05
2023-05-05T23:54:37.969Z,12.94
2023-05-05T23:57:04.660Z,12.86
2023-05-05T23:59:31.233Z,12.85
